Time;durP1;ratioP1;P1;durP2;ratioP2;P2;SDS_P1;SDS_P2;PMS_P1;PMS_P2;Temp;Humidity;BMP_temperature;BMP_pressure;BME280_temperature;BME280_humidity;BME280_pressure;Samples;Min_cycle;Max_cycle;Signal;HPM_P1;HPM_P2
2023/04/07 00:00:05;;;;;;;;;;;10.20;86.20;;;;;;5071466;28;19909;-28
2023/04/07 00:02:31;;;;;;;;;;;10.20;86.30;;;;;;5070055;28;19908;-27
2023/04/07 00:04:57;;;;;;;;;;;10.20;86.40;;;;;;5071414;28;19915;-28
2023/04/07 00:07:22;;;;;;;;;;;10.20;86.50;;;;;;5069995;28;19908;-29
2023/04/07 00:09:48;;;;;;;;;;;10.20;86.50;;;;;;5071331;28;19948;-27
2023/04/07 00:12:13;;;;;;;;;;;10.10;86.60;;;;;;5071531;28;20013;-28
2023/04/07 00:14:39;;;;;;;;;;;10.10;86.70;;;;;;5071390;28;19927;-29
2023/04/07 00:17:04;;;;;;;;;;;10.10;86.90;;;;;;5071348;28;19932;-28
2023/04/07 00:19:30;;;;;;;;;;;10.10;87.20;;;;;;5071465;28;19992;-28
2023/04/07 00:21:55;;;;;;;;;;;10.10;87.40;;;;;;5071168;28;19916;-30
2023/04/07 00:24:21;;;;;;;;;;;10.00;87.20;;;;;;5069821;28;19908;-29
2023/04/07 00:26:46;;;;;;;;;;;10.00;87.40;;;;;;5071014;28;20031;-28
2023/04/07 00:29:12;;;;;;;;;;;10.00;87.50;;;;;;5071130;28;19924;-28
2023/04/07 00:31:37;;;;;;;;;;;10.00;87.40;;;;;;5071020;28;19924;-28
2023/04/07 00:34:03;;;;;;;;;;;10.00;87.50;;;;;;5069798;28;20320;-32
2023/04/07 00:36:28;;;;;;;;;;;10.00;87.50;;;;;;5071008;28;20000;-28
2023/04/07 00:38:54;;;;;;;;;;;10.00;87.70;;;;;;5074342;28;19947;-28
2023/04/07 00:41:19;;;;;;;;;;;10.00;87.90;;;;;;5074930;28;20048;-27
2023/04/07 00:43:45;;;;;;;;;;;10.00;88.00;;;;;;5074748;28;20263;-30
2023/04/07 00:46:10;;;;;;;;;;;10.00;88.00;;;;;;5074429;28;20003;-28
2023/04/07 00:48:36;;;;;;;;;;;10.00;88.00;;;;;;5074557;28;19909;-30
2023/04/07 00:51:02;;;;;;;;;;;10.00;87.90;;;;;;5074643;28;19962;-27
2023/04/07 00:53:28;;;;;;;;;;;9.90;87.80;;;;;;5074418;28;19936;-26
2023/04/07 00:55:53;;;;;;;;;;;10.00;88.00;;;;;;5074356;28;19915;-37
2023/04/07 00:58:19;;;;;;;;;;;10.00;88.20;;;;;;5074264;28;19995;-29
2023/04/07 01:00:48;;;;;;;;;;;9.90;88.10;;;;;;5074333;28;20469;-28
2023/04/07 01:03:19;;;;;;;;;;;9.90;88.10;;;;;;5074286;28;19908;-27
2023/04/07 01:05:56;;;;;;;;;;;9.90;88.30;;;;;;5074351;28;19908;-28
2023/04/07 01:08:22;;;;;;;;;;;9.90;88.20;;;;;;5074466;28;20328;-29
2023/04/07 01:10:52;;;;;;;;;;;9.90;88.20;;;;;;5074154;28;20302;-29
2023/04/07 01:13:27;;;;;;;;;;;9.90;88.30;;;;;;5072687;28;19908;-29
2023/04/07 01:15:55;;;;;;;;;;;9.90;88.40;;;;;;5074064;28;19909;-28
2023/04/07 01:18:24;;;;;;;;;;;9.90;88.50;;;;;;5073877;28;19916;-27
2023/04/07 01:20:51;;;;;;;;;;;9.80;88.70;;;;;;5074254;28;19999;-29
2023/04/07 01:23:22;;;;;;;;;;;9.80;88.70;;;;;;5073965;28;19931;-28
2023/04/07 01:25:47;;;;;;;;;;;9.80;88.70;;;;;;5073784;28;19921;-28
2023/04/07 01:28:25;;;;;;;;;;;9.80;88.80;;;;;;5073825;28;20432;-30
2023/04/07 01:30:51;;;;;;;;;;;9.80;89.00;;;;;;5073715;28;19923;-30
2023/04/07 01:33:17;;;;;;;;;;;9.80;88.90;;;;;;5072419;28;20011;-29
2023/04/07 01:35:43;;;;;;;;;;;9.70;88.80;;;;;;5073661;28;19913;-27
2023/04/07 01:38:10;;;;;;;;;;;9.70;88.90;;;;;;5073535;28;19942;-29
2023/04/07 01:40:36;;;;;;;;;;;9.70;89.10;;;;;;5073887;28;20371;-32
2023/04/07 01:43:02;;;;;;;;;;;9.70;88.90;;;;;;5073559;28;20340;-28
2023/04/07 01:45:28;;;;;;;;;;;9.70;88.80;;;;;;5073627;28;19956;-32
2023/04/07 01:47:53;;;;;;;;;;;9.70;89.10;;;;;;5073526;28;20368;-35
2023/04/07 01:50:20;;;;;;;;;;;9.70;89.00;;;;;;5072891;28;19936;-28
2023/04/07 01:52:46;;;;;;;;;;;9.60;89.60;;;;;;5073296;28;19917;-27
2023/04/07 01:55:11;;;;;;;;;;;9.60;89.10;;;;;;5073285;28;19956;-28
2023/04/07 01:57:37;;;;;;;;;;;9.60;89.10;;;;;;5073347;28;20108;-29
2023/04/07 02:00:03;;;;;;;;;;;9.60;89.10;;;;;;5073197;28;19913;-28
2023/04/07 02:02:29;;;;;;;;;;;9.60;89.10;;;;;;5073333;28;20300;-28
2023/04/07 02:04:55;;;;;;;;;;;9.60;89.00;;;;;;5073239;28;19913;-30
2023/04/07 02:07:28;;;;;;;;;;;9.60;89.00;;;;;;5073204;28;20268;-29
2023/04/07 02:09:56;;;;;;;;;;;9.60;89.00;;;;;;5071136;28;19909;-27
2023/04/07 02:12:22;;;;;;;;;;;9.60;89.10;;;;;;5072850;28;19993;-28
2023/04/07 02:14:48;;;;;;;;;;;9.60;89.00;;;;;;5073040;28;19912;-29
2023/04/07 02:17:15;;;;;;;;;;;9.60;89.10;;;;;;5073256;28;19927;-28
2023/04/07 02:19:41;;;;;;;;;;;9.60;88.90;;;;;;5072898;28;19913;-30
2023/04/07 02:22:07;;;;;;;;;;;9.60;88.90;;;;;;5072831;28;20283;-28
2023/04/07 02:24:33;;;;;;;;;;;9.60;88.90;;;;;;5072899;28;19908;-28
2023/04/07 02:27:00;;;;;;;;;;;9.60;88.90;;;;;;5072674;28;19921;-29
2023/04/07 02:29:26;;;;;;;;;;;9.60;88.90;;;;;;5072786;28;20400;-29
2023/04/07 02:31:51;;;;;;;;;;;9.60;88.90;;;;;;5072528;28;19920;-29
2023/04/07 02:34:16;;;;;;;;;;;9.60;89.00;;;;;;5072560;28;19959;-29
2023/04/07 02:36:42;;;;;;;;;;;9.60;88.90;;;;;;5072455;28;19915;-31
2023/04/07 02:39:08;;;;;;;;;;;9.60;89.00;;;;;;5071095;28;20369;-32
2023/04/07 02:41:33;;;;;;;;;;;9.60;88.90;;;;;;5072550;28;20007;-30
2023/04/07 02:43:59;;;;;;;;;;;9.60;89.00;;;;;;5072409;28;19919;-28
2023/04/07 02:46:24;;;;;;;;;;;9.60;89.00;;;;;;5072378;28;19955;-30
2023/04/07 02:48:51;;;;;;;;;;;9.60;89.00;;;;;;5072344;28;19918;-26
2023/04/07 02:51:16;;;;;;;;;;;9.60;88.90;;;;;;5072390;28;19959;-32
2023/04/07 02:53:42;;;;;;;;;;;9.60;88.90;;;;;;5072202;28;19936;-29
2023/04/07 02:56:07;;;;;;;;;;;9.60;88.90;;;;;;5072125;28;19908;-30
2023/04/07 02:58:33;;;;;;;;;;;9.50;88.90;;;;;;5071943;28;19908;-27
2023/04/07 03:00:58;;;;;;;;;;;9.60;88.90;;;;;;5071350;28;19908;-30
2023/04/07 03:03:23;;;;;;;;;;;9.60;88.90;;;;;;5072322;28;19908;-30
2023/04/07 03:05:49;;;;;;;;;;;9.60;89.10;;;;;;5071901;28;20027;-28
2023/04/07 03:08:15;;;;;;;;;;;9.60;88.80;;;;;;5072098;28;19916;-32
2023/04/07 03:10:41;;;;;;;;;;;9.50;88.80;;;;;;5072173;28;20467;-30
2023/04/07 03:13:07;;;;;;;;;;;9.50;89.00;;;;;;5072229;28;20019;-28
2023/04/07 03:15:32;;;;;;;;;;;9.50;89.00;;;;;;5071888;28;19915;-27
2023/04/07 03:17:58;;;;;;;;;;;9.50;88.80;;;;;;5071810;28;19908;-28
2023/04/07 03:20:23;;;;;;;;;;;9.50;88.80;;;;;;5071742;28;19915;-27
2023/04/07 03:22:49;;;;;;;;;;;9.60;88.90;;;;;;5071675;28;19993;-28
2023/04/07 03:25:15;;;;;;;;;;;9.60;88.80;;;;;;5071674;28;20265;-30
2023/04/07 03:27:40;;;;;;;;;;;9.60;88.70;;;;;;5071745;28;20390;-28
2023/04/07 03:30:06;;;;;;;;;;;9.60;88.70;;;;;;5071693;28;20280;-28
2023/04/07 03:32:31;;;;;;;;;;;9.60;88.60;;;;;;5071625;28;19920;-28
2023/04/07 03:34:57;;;;;;;;;;;9.60;88.60;;;;;;5071743;28;19954;-29
2023/04/07 03:37:22;;;;;;;;;;;9.60;88.60;;;;;;5071807;28;19908;-34
2023/04/07 03:39:48;;;;;;;;;;;9.60;88.60;;;;;;5071629;28;19915;-30
2023/04/07 03:42:13;;;;;;;;;;;9.60;88.50;;;;;;5071737;28;19909;-30
2023/04/07 03:44:39;;;;;;;;;;;9.70;88.60;;;;;;5071619;28;19908;-28
2023/04/07 03:47:04;;;;;;;;;;;9.60;88.40;;;;;;5071435;28;20284;-30
2023/04/07 03:49:31;;;;;;;;;;;9.70;88.40;;;;;;5070110;28;19989;-27
2023/04/07 03:51:57;;;;;;;;;;;9.70;88.40;;;;;;5071686;28;19948;-29
2023/04/07 03:54:22;;;;;;;;;;;9.70;88.50;;;;;;5071473;28;20283;-28
2023/04/07 03:56:48;;;;;;;;;;;9.70;88.30;;;;;;5071488;28;19908;-29
2023/04/07 03:59:13;;;;;;;;;;;9.70;88.40;;;;;;5071257;28;19916;-34
2023/04/07 04:01:39;;;;;;;;;;;9.60;88.30;;;;;;5071356;28;19970;-31
2023/04/07 04:04:04;;;;;;;;;;;9.70;88.40;;;;;;5071334;28;20330;-28
2023/04/07 04:06:30;;;;;;;;;;;9.70;88.40;;;;;;5071212;28;19935;-28
2023/04/07 04:08:55;;;;;;;;;;;9.70;88.50;;;;;;5071398;28;19908;-27
2023/04/07 04:11:21;;;;;;;;;;;9.60;88.40;;;;;;5070913;28;20255;-28
2023/04/07 04:13:46;;;;;;;;;;;9.60;88.50;;;;;;5073940;28;20375;-29
2023/04/07 04:16:12;;;;;;;;;;;9.60;88.50;;;;;;5074839;28;20434;-29
2023/04/07 04:18:37;;;;;;;;;;;9.60;88.50;;;;;;5075485;28;19930;-28
2023/04/07 04:21:03;;;;;;;;;;;9.60;88.50;;;;;;5073676;28;19963;-27
2023/04/07 04:23:28;;;;;;;;;;;9.70;88.50;;;;;;5075027;28;19965;-28
2023/04/07 04:25:54;;;;;;;;;;;9.70;88.40;;;;;;5075193;28;19970;-29
2023/04/07 04:28:19;;;;;;;;;;;9.70;88.40;;;;;;5074750;28;19908;-33
2023/04/07 04:30:45;;;;;;;;;;;9.70;88.40;;;;;;5074779;28;19908;-29
2023/04/07 04:33:11;;;;;;;;;;;9.70;88.40;;;;;;5074886;28;19913;-28
2023/04/07 04:35:36;;;;;;;;;;;9.70;88.40;;;;;;5073369;28;19964;-27
2023/04/07 04:38:02;;;;;;;;;;;9.70;88.40;;;;;;5074689;28;19908;-28
2023/04/07 04:40:27;;;;;;;;;;;9.70;88.40;;;;;;5074661;28;19909;-31
2023/04/07 04:42:52;;;;;;;;;;;9.70;88.40;;;;;;5074490;28;19952;-29
2023/04/07 04:45:18;;;;;;;;;;;9.70;88.30;;;;;;5074554;28;20264;-30
2023/04/07 04:47:43;;;;;;;;;;;9.70;88.30;;;;;;5074849;28;19943;-30
2023/04/07 04:50:09;;;;;;;;;;;9.70;88.30;;;;;;5074705;28;19913;-29
2023/04/07 04:52:35;;;;;;;;;;;9.80;88.30;;;;;;5073088;28;19943;-31
2023/04/07 04:55:00;;;;;;;;;;;9.80;88.20;;;;;;5074514;28;19915;-31
2023/04/07 04:57:26;;;;;;;;;;;9.80;88.20;;;;;;5074945;28;19909;-28
2023/04/07 04:59:51;;;;;;;;;;;9.80;88.20;;;;;;5074553;28;19908;-29
2023/04/07 05:02:17;;;;;;;;;;;9.80;88.20;;;;;;5074381;28;20328;-31
2023/04/07 05:04:42;;;;;;;;;;;9.80;88.10;;;;;;5074343;28;20006;-29
2023/04/07 05:07:08;;;;;;;;;;;9.80;88.20;;;;;;5074444;28;20336;-29
2023/04/07 05:09:33;;;;;;;;;;;9.70;88.10;;;;;;5074478;28;19915;-27
2023/04/07 05:12:00;;;;;;;;;;;9.80;88.30;;;;;;5074320;28;20368;-32
2023/04/07 05:14:26;;;;;;;;;;;9.70;88.10;;;;;;5074257;28;19908;-31
2023/04/07 05:16:53;;;;;;;;;;;9.80;88.20;;;;;;5074131;28;19908;-28
2023/04/07 05:19:18;;;;;;;;;;;9.80;88.20;;;;;;5074289;28;19909;-27
2023/04/07 05:21:44;;;;;;;;;;;9.70;88.10;;;;;;5074070;28;19915;-29
2023/04/07 05:24:09;;;;;;;;;;;9.80;88.20;;;;;;5073117;28;19920;-32
2023/04/07 05:26:34;;;;;;;;;;;9.80;88.20;;;;;;5073801;28;19920;-28
2023/04/07 05:29:02;;;;;;;;;;;9.80;88.20;;;;;;5073519;28;20450;-30
2023/04/07 05:31:27;;;;;;;;;;;9.70;88.10;;;;;;5073848;28;20043;-30
2023/04/07 05:33:53;;;;;;;;;;;9.70;88.10;;;;;;5073681;28;19981;-28
2023/04/07 05:36:18;;;;;;;;;;;9.70;88.10;;;;;;5072326;28;19913;-30
2023/04/07 05:38:44;;;;;;;;;;;9.70;88.10;;;;;;5073873;28;19919;-28
2023/04/07 05:41:09;;;;;;;;;;;9.70;88.10;;;;;;5073798;28;19947;-28
2023/04/07 05:43:35;;;;;;;;;;;9.70;88.10;;;;;;5073572;28;19992;-27
2023/04/07 05:46:00;;;;;;;;;;;9.70;88.00;;;;;;5073666;28;20348;-28
2023/04/07 05:48:26;;;;;;;;;;;9.80;88.10;;;;;;5073627;28;19916;-28
2023/04/07 05:50:51;;;;;;;;;;;9.80;88.10;;;;;;5073570;28;20368;-27
2023/04/07 05:53:17;;;;;;;;;;;9.80;88.10;;;;;;5073349;28;19959;-28
2023/04/07 05:55:42;;;;;;;;;;;9.70;88.00;;;;;;5073199;28;19940;-27
2023/04/07 05:58:08;;;;;;;;;;;9.80;88.10;;;;;;5073227;28;19999;-28
2023/04/07 06:00:33;;;;;;;;;;;9.70;88.00;;;;;;5073238;28;19961;-29
2023/04/07 06:03:00;;;;;;;;;;;9.80;88.70;;;;;;5073125;28;20426;-30
2023/04/07 06:05:26;;;;;;;;;;;9.80;88.00;;;;;;5073130;28;20380;-27
2023/04/07 06:07:51;;;;;;;;;;;9.80;88.00;;;;;;5073075;28;19939;-30
2023/04/07 06:10:17;;;;;;;;;;;9.90;88.00;;;;;;5073093;28;19947;-27
2023/04/07 06:12:42;;;;;;;;;;;9.80;87.90;;;;;;5072987;28;19920;-29
2023/04/07 06:15:08;;;;;;;;;;;9.90;88.00;;;;;;5073006;28;19998;-29
2023/04/07 06:17:34;;;;;;;;;;;9.90;88.00;;;;;;5072763;28;19912;-29
2023/04/07 06:19:59;;;;;;;;;;;9.90;88.00;;;;;;5072836;28;19927;-31
2023/04/07 06:22:25;;;;;;;;;;;9.90;88.00;;;;;;5073245;28;19920;-28
2023/04/07 06:24:50;;;;;;;;;;;9.90;88.00;;;;;;5072814;28;19955;-35
2023/04/07 06:27:17;;;;;;;;;;;9.90;87.90;;;;;;5072686;28;19920;-27
2023/04/07 06:29:42;;;;;;;;;;;9.90;88.00;;;;;;5072898;28;19916;-30
2023/04/07 06:32:08;;;;;;;;;;;9.90;87.90;;;;;;5072551;28;19970;-27
2023/04/07 06:34:33;;;;;;;;;;;9.90;87.90;;;;;;5072461;28;20014;-30
2023/04/07 06:36:59;;;;;;;;;;;9.90;87.80;;;;;;5072834;28;20314;-27
2023/04/07 06:39:26;;;;;;;;;;;9.90;88.30;;;;;;5072471;28;20003;-29
2023/04/07 06:41:51;;;;;;;;;;;9.80;87.90;;;;;;5072523;28;19912;-28
2023/04/07 06:44:16;;;;;;;;;;;9.80;87.90;;;;;;5072514;28;19931;-26
2023/04/07 06:46:43;;;;;;;;;;;9.90;88.00;;;;;;5072472;28;19927;-28
2023/04/07 06:49:08;;;;;;;;;;;9.90;88.00;;;;;;5072374;28;20296;-28
2023/04/07 06:51:34;;;;;;;;;;;9.90;88.00;;;;;;5072216;28;19916;-28
2023/04/07 06:53:59;;;;;;;;;;;9.90;88.00;;;;;;5072357;28;19922;-29
2023/04/07 06:56:25;;;;;;;;;;;9.90;88.00;;;;;;5072603;28;19967;-27
2023/04/07 06:58:51;;;;;;;;;;;10.00;88.00;;;;;;5072250;28;19919;-28
2023/04/07 07:01:16;;;;;;;;;;;10.00;88.00;;;;;;5072577;28;19912;-27
2023/04/07 07:03:42;;;;;;;;;;;10.10;88.00;;;;;;5072209;28;19951;-29
2023/04/07 07:06:07;;;;;;;;;;;10.10;87.80;;;;;;5072310;28;19912;-28
2023/04/07 07:08:33;;;;;;;;;;;10.10;87.80;;;;;;5072242;28;19919;-28
2023/04/07 07:10:59;;;;;;;;;;;10.20;87.80;;;;;;5072253;28;19920;-29
2023/04/07 07:13:25;;;;;;;;;;;10.20;87.70;;;;;;5072493;28;20371;-30
2023/04/07 07:15:51;;;;;;;;;;;10.20;87.70;;;;;;5070925;28;20402;-28
2023/04/07 07:18:17;;;;;;;;;;;10.30;87.70;;;;;;5072134;28;19956;-27
2023/04/07 07:20:43;;;;;;;;;;;10.30;87.60;;;;;;5072233;28;20379;-28
2023/04/07 07:23:08;;;;;;;;;;;10.30;87.60;;;;;;5072206;28;19913;-27
2023/04/07 07:25:34;;;;;;;;;;;10.40;87.50;;;;;;5071949;28;19927;-30
2023/04/07 07:28:00;;;;;;;;;;;10.40;87.50;;;;;;5072227;28;19916;-31
2023/04/07 07:30:25;;;;;;;;;;;10.30;87.40;;;;;;5072552;28;19948;-28
2023/04/07 07:32:52;;;;;;;;;;;10.30;87.50;;;;;;5071893;28;20375;-30
2023/04/07 07:35:18;;;;;;;;;;;10.30;87.50;;;;;;5072269;28;20424;-28
2023/04/07 07:37:44;;;;;;;;;;;10.40;87.50;;;;;;5072005;28;19962;-29
2023/04/07 07:40:10;;;;;;;;;;;10.40;87.40;;;;;;5071981;28;19912;-30
2023/04/07 07:42:35;;;;;;;;;;;10.50;87.30;;;;;;5071909;28;19912;-30
2023/04/07 07:45:01;;;;;;;;;;;10.60;87.30;;;;;;5071782;28;20283;-33
2023/04/07 07:47:27;;;;;;;;;;;10.70;87.30;;;;;;5071231;28;20360;-29
2023/04/07 07:49:52;;;;;;;;;;;10.80;87.10;;;;;;5072133;28;19912;-29
2023/04/07 07:52:19;;;;;;;;;;;10.80;86.90;;;;;;5071787;28;20429;-28
2023/04/07 07:54:45;;;;;;;;;;;10.80;86.80;;;;;;5072026;28;19919;-28
2023/04/07 07:57:11;;;;;;;;;;;10.80;86.60;;;;;;5071606;28;20350;-28
2023/04/07 07:59:37;;;;;;;;;;;10.90;86.50;;;;;;5071481;28;19939;-29
2023/04/07 08:02:02;;;;;;;;;;;10.80;86.40;;;;;;5071499;28;19912;-28
2023/04/07 08:04:28;;;;;;;;;;;10.80;86.50;;;;;;5071963;28;19966;-39
2023/04/07 08:06:54;;;;;;;;;;;10.80;86.40;;;;;;5071639;28;19912;-29
2023/04/07 08:09:19;;;;;;;;;;;10.90;86.50;;;;;;5071667;28;20578;-31
2023/04/07 08:11:47;;;;;;;;;;;10.90;86.50;;;;;;5071511;28;19924;-31
2023/04/07 08:14:13;;;;;;;;;;;10.90;86.20;;;;;;5071359;28;19913;-29
2023/04/07 08:16:38;;;;;;;;;;;11.00;86.30;;;;;;5071412;28;19920;-31
2023/04/07 08:19:04;;;;;;;;;;;11.00;86.20;;;;;;5071297;28;19919;-28
2023/04/07 08:21:30;;;;;;;;;;;11.00;86.70;;;;;;5071708;28;19931;-30
2023/04/07 08:23:56;;;;;;;;;;;11.00;85.80;;;;;;5071508;28;19913;-30
2023/04/07 08:26:21;;;;;;;;;;;11.00;85.90;;;;;;5071116;28;19925;-33
2023/04/07 08:28:49;;;;;;;;;;;11.00;85.90;;;;;;5071416;28;19919;-29
2023/04/07 08:31:14;;;;;;;;;;;11.00;85.90;;;;;;5071264;28;19942;-30
2023/04/07 08:33:40;;;;;;;;;;;11.00;86.00;;;;;;5071579;28;19917;-34
2023/04/07 08:36:05;;;;;;;;;;;11.00;86.00;;;;;;5071295;28;19913;-28
2023/04/07 08:38:31;;;;;;;;;;;10.90;86.00;;;;;;5071639;28;19912;-30
2023/04/07 08:41:02;;;;;;;;;;;10.90;85.90;;;;;;5071214;28;19912;-28
2023/04/07 08:43:28;;;;;;;;;;;10.90;86.00;;;;;;5071262;28;19919;-28
2023/04/07 08:45:55;;;;;;;;;;;10.90;86.00;;;;;;5071526;28;19988;-34
2023/04/07 08:48:22;;;;;;;;;;;10.90;86.00;;;;;;5071566;28;19962;-31
2023/04/07 08:50:51;;;;;;;;;;;10.90;86.00;;;;;;5071322;28;20400;-29
2023/04/07 08:53:19;;;;;;;;;;;10.80;86.00;;;;;;5071152;28;19917;-28
2023/04/07 08:55:44;;;;;;;;;;;10.80;86.10;;;;;;5071253;28;19999;-28
2023/04/07 08:58:11;;;;;;;;;;;10.80;86.20;;;;;;5071166;28;19996;-32
2023/04/07 09:00:38;;;;;;;;;;;10.90;86.20;;;;;;5073797;28;20015;-28
2023/04/07 09:03:04;;;;;;;;;;;10.90;86.20;;;;;;5074561;28;19960;-29
2023/04/07 09:05:31;;;;;;;;;;;11.00;86.00;;;;;;5074690;28;19958;-29
2023/04/07 09:07:56;;;;;;;;;;;11.00;86.00;;;;;;5074564;28;19913;-29
2023/04/07 09:10:22;;;;;;;;;;;11.10;86.00;;;;;;5074481;28;19997;-32
2023/04/07 09:12:47;;;;;;;;;;;11.20;86.00;;;;;;5074734;28;19916;-28
2023/04/07 09:15:13;;;;;;;;;;;11.20;85.80;;;;;;5074401;28;20387;-29
2023/04/07 09:17:39;;;;;;;;;;;11.20;85.70;;;;;;5074550;28;19951;-28
2023/04/07 09:20:04;;;;;;;;;;;11.20;85.80;;;;;;5074347;28;19970;-29
2023/04/07 09:22:56;;;;;;;;;;;11.10;85.70;;;;;;5074449;28;20424;-29
2023/04/07 09:25:24;;;;;;;;;;;11.20;85.90;;;;;;5073782;28;19931;-30
2023/04/07 09:27:58;;;;;;;;;;;11.20;85.90;;;;;;5074639;28;19916;-30
2023/04/07 09:30:23;;;;;;;;;;;11.30;85.80;;;;;;5074466;28;19912;-30
2023/04/07 09:32:49;;;;;;;;;;;11.40;85.40;;;;;;5074398;28;19924;-29
2023/04/07 09:35:15;;;;;;;;;;;11.40;85.20;;;;;;5074368;28;20011;-46
2023/04/07 09:37:41;;;;;;;;;;;11.40;85.30;;;;;;5074138;28;20390;-29
2023/04/07 09:40:08;;;;;;;;;;;11.40;85.30;;;;;;5074083;28;19944;-30
2023/04/07 09:42:36;;;;;;;;;;;11.40;85.40;;;;;;5074302;28;19913;-29
2023/04/07 09:45:02;;;;;;;;;;;11.30;85.40;;;;;;5073910;28;19912;-29
2023/04/07 09:47:28;;;;;;;;;;;11.30;85.40;;;;;;5074143;28;19920;-29
2023/04/07 09:49:54;;;;;;;;;;;11.30;85.20;;;;;;5073715;28;19913;-29
2023/04/07 09:52:39;;;;;;;;;;;11.20;85.20;;;;;;5074038;28;19974;-31
2023/04/07 09:55:05;;;;;;;;;;;11.10;85.20;;;;;;5073621;28;20419;-30
2023/04/07 09:57:30;;;;;;;;;;;11.10;85.40;;;;;;5073682;28;19912;-28
2023/04/07 09:59:57;;;;;;;;;;;11.00;85.50;;;;;;5073471;28;20366;-29
2023/04/07 10:02:22;;;;;;;;;;;11.10;85.50;;;;;;5073396;28;19923;-31
2023/04/07 10:04:48;;;;;;;;;;;11.20;85.40;;;;;;5073423;28;20011;-32
2023/04/07 10:07:14;;;;;;;;;;;11.20;85.10;;;;;;5073344;28;20384;-31
2023/04/07 10:09:40;;;;;;;;;;;11.20;84.90;;;;;;5073383;28;20063;-29
2023/04/07 10:12:05;;;;;;;;;;;11.20;84.90;;;;;;5072715;28;20338;-29
2023/04/07 10:14:31;;;;;;;;;;;11.20;84.80;;;;;;5073262;28;19920;-30
2023/04/07 10:16:58;;;;;;;;;;;11.20;84.70;;;;;;5073255;28;19912;-31
2023/04/07 10:19:25;;;;;;;;;;;11.20;84.80;;;;;;5073122;28;20335;-29
2023/04/07 10:21:53;;;;;;;;;;;11.30;84.90;;;;;;5073471;28;20292;-36
2023/04/07 10:24:38;;;;;;;;;;;11.30;84.80;;;;;;5073435;28;19919;-29
2023/04/07 10:27:07;;;;;;;;;;;11.30;84.70;;;;;;5072774;28;20291;-38
2023/04/07 10:29:34;;;;;;;;;;;11.30;84.80;;;;;;5071657;28;19912;-33
2023/04/07 10:32:01;;;;;;;;;;;11.30;84.70;;;;;;5073052;28;19977;-34
2023/04/07 10:34:59;;;;;;;;;;;11.30;84.80;;;;;;5073135;28;20066;-30
2023/04/07 10:37:26;;;;;;;;;;;11.30;84.60;;;;;;5059886;28;19959;-34
2023/04/07 10:40:12;;;;;;;;;;;11.40;84.60;;;;;;5072847;28;19912;-29
2023/04/07 10:42:37;;;;;;;;;;;11.40;84.20;;;;;;5072637;28;20015;-28
2023/04/07 10:45:03;;;;;;;;;;;11.40;84.20;;;;;;5072632;28;19955;-32
2023/04/07 10:47:29;;;;;;;;;;;11.40;84.20;;;;;;5072707;28;19912;-31
2023/04/07 10:50:10;;;;;;;;;;;11.40;84.30;;;;;;5072602;28;20062;-30
2023/04/07 10:52:35;;;;;;;;;;;11.40;84.10;;;;;;5072480;28;20376;-29
2023/04/07 10:55:19;;;;;;;;;;;11.40;84.10;;;;;;5072503;28;19912;-31
2023/04/07 10:58:05;;;;;;;;;;;11.40;83.90;;;;;;5072678;28;19995;-29
2023/04/07 11:00:31;;;;;;;;;;;11.40;84.00;;;;;;5071753;28;19947;-32
2023/04/07 11:02:56;;;;;;;;;;;11.30;84.70;;;;;;5072702;28;19912;-30
2023/04/07 11:05:22;;;;;;;;;;;11.40;84.80;;;;;;5072252;28;19912;-31
2023/04/07 11:07:49;;;;;;;;;;;11.30;84.20;;;;;;5072347;28;20418;-28
2023/04/07 11:10:15;;;;;;;;;;;11.40;84.30;;;;;;5072457;28;19917;-32
2023/04/07 11:12:41;;;;;;;;;;;11.40;84.30;;;;;;5072301;28;20023;-30
2023/04/07 11:15:17;;;;;;;;;;;11.40;84.40;;;;;;5072158;28;19940;-30
2023/04/07 11:17:42;;;;;;;;;;;11.50;84.60;;;;;;5072724;28;20375;-30
2023/04/07 11:20:08;;;;;;;;;;;11.50;84.60;;;;;;5070893;28;19959;-29
2023/04/07 11:22:34;;;;;;;;;;;11.50;84.60;;;;;;5070244;28;20280;-29
2023/04/07 11:25:00;;;;;;;;;;;11.50;84.70;;;;;;5072231;28;19916;-29
2023/04/07 11:27:27;;;;;;;;;;;11.50;84.70;;;;;;5071923;28;19921;-31
2023/04/07 11:29:53;;;;;;;;;;;11.50;85.00;;;;;;5072063;28;19927;-29
2023/04/07 11:32:21;;;;;;;;;;;11.50;84.90;;;;;;5072017;28;19924;-28
2023/04/07 11:34:47;;;;;;;;;;;11.50;84.90;;;;;;5072174;28;19912;-28
2023/04/07 11:37:18;;;;;;;;;;;11.50;84.90;;;;;;5072036;28;20013;-31
2023/04/07 11:39:46;;;;;;;;;;;11.40;84.90;;;;;;5072201;28;20317;-38
2023/04/07 11:42:11;;;;;;;;;;;11.50;85.00;;;;;;5072281;28;19973;-32
2023/04/07 11:44:44;;;;;;;;;;;11.50;84.90;;;;;;5071968;28;19913;-31
2023/04/07 11:47:09;;;;;;;;;;;11.50;84.80;;;;;;5071907;28;20000;-30
2023/04/07 11:49:42;;;;;;;;;;;11.50;84.80;;;;;;5071865;28;20395;-30
2023/04/07 11:52:08;;;;;;;;;;;11.50;84.80;;;;;;5071796;28;19917;-30
2023/04/07 11:54:41;;;;;;;;;;;11.50;84.80;;;;;;5072162;28;19913;-34
2023/04/07 11:57:09;;;;;;;;;;;11.50;84.80;;;;;;5071694;28;19912;-32
2023/04/07 11:59:34;;;;;;;;;;;11.50;84.70;;;;;;5071774;28;19920;-33
2023/04/07 12:02:00;;;;;;;;;;;11.60;84.80;;;;;;5071963;28;19916;-29
2023/04/07 12:04:26;;;;;;;;;;;11.60;84.70;;;;;;5071964;28;19935;-30
2023/04/07 12:06:51;;;;;;;;;;;11.70;84.80;;;;;;5071558;28;19913;-31
2023/04/07 12:09:31;;;;;;;;;;;11.90;84.70;;;;;;5071497;28;20467;-31
2023/04/07 12:11:57;;;;;;;;;;;12.00;84.60;;;;;;5071800;28;20026;-29
2023/04/07 12:14:26;;;;;;;;;;;12.10;84.30;;;;;;5071419;28;20373;-32
2023/04/07 12:16:54;;;;;;;;;;;12.10;84.10;;;;;;5071802;28;19912;-30
2023/04/07 12:19:21;;;;;;;;;;;12.10;84.10;;;;;;5071722;28;19923;-28
2023/04/07 12:21:46;;;;;;;;;;;12.00;83.80;;;;;;5071328;28;19920;-29
2023/04/07 12:24:12;;;;;;;;;;;12.00;84.00;;;;;;5071499;28;19913;-29
2023/04/07 12:26:37;;;;;;;;;;;12.00;83.90;;;;;;5071120;28;19970;-31
2023/04/07 12:29:05;;;;;;;;;;;12.00;83.90;;;;;;5071353;28;19963;-33
2023/04/07 12:31:31;;;;;;;;;;;12.00;83.80;;;;;;5071295;28;19924;-28
2023/04/07 12:33:57;;;;;;;;;;;12.00;84.00;;;;;;5073050;28;19912;-31
2023/04/07 12:36:23;;;;;;;;;;;12.00;83.60;;;;;;5075239;28;20395;-29
2023/04/07 12:38:49;;;;;;;;;;;11.90;83.70;;;;;;5075339;28;19919;-30
2023/04/07 12:41:14;;;;;;;;;;;11.90;83.90;;;;;;5075194;28;20404;-29
2023/04/07 12:43:40;;;;;;;;;;;12.00;83.90;;;;;;5075007;28;19916;-29
2023/04/07 12:46:05;;;;;;;;;;;12.00;83.90;;;;;;5075062;28;19978;-30
2023/04/07 12:48:31;;;;;;;;;;;12.00;83.80;;;;;;5074927;28;19913;-29
2023/04/07 12:50:57;;;;;;;;;;;12.00;83.70;;;;;;5075128;28;20453;-32
2023/04/07 12:53:22;;;;;;;;;;;11.90;83.70;;;;;;5074715;28;19966;-29
2023/04/07 12:55:48;;;;;;;;;;;11.80;83.80;;;;;;5074578;28;19922;-29
2023/04/07 12:58:13;;;;;;;;;;;11.90;83.90;;;;;;5074805;28;19916;-33
2023/04/07 13:00:40;;;;;;;;;;;11.80;83.90;;;;;;5075010;28;19912;-29
2023/04/07 13:03:06;;;;;;;;;;;11.80;84.00;;;;;;5074891;28;19919;-28
2023/04/07 13:05:31;;;;;;;;;;;11.90;84.10;;;;;;5074995;28;20603;-28
2023/04/07 13:07:57;;;;;;;;;;;11.90;84.10;;;;;;5074565;28;19919;-29
2023/04/07 13:10:22;;;;;;;;;;;12.10;84.00;;;;;;5074337;28;19913;-30
2023/04/07 13:12:48;;;;;;;;;;;12.20;83.90;;;;;;5074741;28;19916;-29
2023/04/07 13:15:13;;;;;;;;;;;12.30;83.70;;;;;;5074544;28;20244;-32
2023/04/07 13:17:39;;;;;;;;;;;12.40;83.60;;;;;;5074196;28;20478;-32
2023/04/07 13:20:05;;;;;;;;;;;12.50;83.50;;;;;;5074626;28;19985;-31
2023/04/07 13:22:31;;;;;;;;;;;12.50;83.30;;;;;;5074571;28;19924;-31
2023/04/07 13:24:56;;;;;;;;;;;12.60;83.10;;;;;;5073270;28;19912;-30
2023/04/07 13:27:22;;;;;;;;;;;12.60;82.70;;;;;;5074012;28;19967;-29
2023/04/07 13:29:47;;;;;;;;;;;12.60;83.10;;;;;;5074428;28;19912;-29
2023/04/07 13:32:14;;;;;;;;;;;12.60;81.90;;;;;;5074025;28;20482;-29
2023/04/07 13:34:39;;;;;;;;;;;12.40;82.10;;;;;;5074395;28;20257;-28
2023/04/07 13:37:05;;;;;;;;;;;12.40;82.10;;;;;;5073937;28;19927;-30
2023/04/07 13:39:31;;;;;;;;;;;12.30;82.00;;;;;;5074148;28;19913;-34
2023/04/07 13:41:57;;;;;;;;;;;12.20;82.50;;;;;;5073944;28;19912;-30
2023/04/07 13:44:23;;;;;;;;;;;12.20;82.70;;;;;;5074299;28;20253;-32
2023/04/07 13:46:48;;;;;;;;;;;12.20;82.70;;;;;;5073539;28;19920;-44
2023/04/07 13:49:13;;;;;;;;;;;12.20;82.50;;;;;;5074047;28;20219;-32
2023/04/07 13:51:39;;;;;;;;;;;12.10;82.10;;;;;;5073933;28;19920;-28
2023/04/07 13:54:05;;;;;;;;;;;12.00;82.30;;;;;;5073769;28;20011;-29
2023/04/07 13:56:30;;;;;;;;;;;12.00;82.60;;;;;;5073723;28;19920;-32
2023/04/07 13:58:56;;;;;;;;;;;12.00;82.50;;;;;;5073999;28;19912;-31
2023/04/07 14:01:21;;;;;;;;;;;12.10;82.60;;;;;;5073467;28;20008;-27
2023/04/07 14:03:48;;;;;;;;;;;12.10;82.30;;;;;;5073561;28;20322;-29
2023/04/07 14:06:13;;;;;;;;;;;12.10;82.20;;;;;;5073791;28;20419;-29
2023/04/07 14:08:39;;;;;;;;;;;12.00;82.30;;;;;;5073670;28;19955;-29
2023/04/07 14:11:04;;;;;;;;;;;12.00;82.30;;;;;;5073640;28;19912;-28
2023/04/07 14:13:30;;;;;;;;;;;12.10;82.40;;;;;;5073275;28;19920;-28
2023/04/07 14:15:55;;;;;;;;;;;12.10;82.30;;;;;;5073544;28;19913;-34
2023/04/07 14:18:22;;;;;;;;;;;12.20;82.40;;;;;;5073249;28;19912;-33